Terminal Aerodrome Forecast
Issued by NWS Shreveport, LA

Home | Current Version | Previous Version | Text Only | Print | Product List | Glossary On
Versions: 1 2 3 4 5 6 7 8 9 10 11 12 13
000
FTUS44 KSHV 031338 AAA
TAFMLU
TAF AMD
KMLU 031338Z 0314/0412 09004KT 6SM RA BR BKN007 BKN050 OVC080
     FM031500 08010KT 5SM RA BR OVC006
     FM031800 07012KT 4SM RA BR OVC005
     FM040300 06010KT 2SM -RA BR OVC004=

USA.gov is the U.S. government's official web portal to all federal, state and local government web resources and services.